createdAt,value
2018-12-18T00:00:09.009Z,5.10
2018-12-18T00:02:35.257Z,5.10
2018-12-18T00:05:03.788Z,5.10
2018-12-18T00:07:30.026Z,5.10
2018-12-18T00:09:56.406Z,5.10
2018-12-18T00:12:22.669Z,5.10
2018-12-18T00:14:48.933Z,5.00
2018-12-18T00:17:15.190Z,5.00
2018-12-18T00:19:41.441Z,5.10
2018-12-18T00:22:14.618Z,5.10
2018-12-18T00:24:40.861Z,5.10
2018-12-18T00:27:07.128Z,5.10
2018-12-18T00:29:33.392Z,5.10
2018-12-18T00:31:59.717Z,5.10
2018-12-18T00:34:25.974Z,5.00
2018-12-18T00:36:52.234Z,5.00
2018-12-18T00:39:18.477Z,5.10
2018-12-18T00:41:44.729Z,5.10
2018-12-18T00:44:10.976Z,5.10
2018-12-18T00:46:37.380Z,5.10
2018-12-18T00:49:03.741Z,5.20
2018-12-18T00:51:30.030Z,5.10
2018-12-18T00:53:56.320Z,5.10
2018-12-18T00:56:22.581Z,5.10
2018-12-18T00:58:48.816Z,5.00
2018-12-18T01:01:15.077Z,5.10
2018-12-18T01:03:41.323Z,5.00
2018-12-18T01:06:07.592Z,4.90
2018-12-18T01:08:33.829Z,4.80
2018-12-18T01:11:00.105Z,4.70
2018-12-18T01:13:26.356Z,4.70
2018-12-18T01:15:52.629Z,4.80
2018-12-18T01:18:18.874Z,4.80
2018-12-18T01:20:45.134Z,4.90
2018-12-18T01:23:11.377Z,4.90
2018-12-18T01:25:37.614Z,4.90
2018-12-18T01:28:03.864Z,4.90
2018-12-18T01:30:30.106Z,4.90
2018-12-18T01:32:56.353Z,4.90
2018-12-18T01:35:22.598Z,5.00
2018-12-18T01:37:48.886Z,5.10
2018-12-18T01:40:15.214Z,5.00
2018-12-18T01:42:41.473Z,5.00
2018-12-18T01:45:07.729Z,5.00
2018-12-18T01:47:34.009Z,5.00
2018-12-18T01:50:00.266Z,5.10
2018-12-18T01:52:26.529Z,5.10
2018-12-18T01:54:52.781Z,5.10
2018-12-18T01:57:19.073Z,5.00
2018-12-18T01:59:45.338Z,5.10
2018-12-18T02:02:11.607Z,5.00
2018-12-18T02:04:37.853Z,5.00
2018-12-18T02:07:04.125Z,5.00
2018-12-18T02:09:31.885Z,5.00
2018-12-18T02:11:58.156Z,5.10
2018-12-18T02:14:24.322Z,5.00
2018-12-18T02:16:50.582Z,5.00
2018-12-18T02:19:16.821Z,5.10
2018-12-18T02:21:43.065Z,5.00
2018-12-18T02:24:09.440Z,5.00
2018-12-18T02:26:35.681Z,5.00
2018-12-18T02:29:03.912Z,5.00
2018-12-18T02:31:30.283Z,5.00
2018-12-18T02:33:56.540Z,5.00
2018-12-18T02:36:22.786Z,5.00
2018-12-18T02:38:49.043Z,5.00
2018-12-18T02:41:15.288Z,5.10
2018-12-18T02:43:41.558Z,5.10
2018-12-18T02:46:07.796Z,5.10
2018-12-18T02:48:34.068Z,5.10
2018-12-18T02:51:00.553Z,5.20
2018-12-18T02:53:26.814Z,5.20
2018-12-18T02:55:53.074Z,5.20
2018-12-18T02:58:19.318Z,5.20
2018-12-18T03:00:45.564Z,5.10
2018-12-18T03:03:11.810Z,5.20
2018-12-18T03:05:38.071Z,5.20
2018-12-18T03:08:04.318Z,5.20
2018-12-18T03:10:30.602Z,5.30
2018-12-18T03:12:56.845Z,5.20
2018-12-18T03:15:23.106Z,5.20
2018-12-18T03:17:49.352Z,5.10
2018-12-18T03:20:15.624Z,5.00
2018-12-18T03:22:41.886Z,4.90
2018-12-18T03:25:08.161Z,4.70
2018-12-18T03:27:34.393Z,4.70
2018-12-18T03:30:00.650Z,4.70
2018-12-18T03:32:27.750Z,4.60
2018-12-18T03:34:54.012Z,4.50
2018-12-18T03:37:20.246Z,4.40
2018-12-18T03:39:46.493Z,4.30
2018-12-18T03:42:12.765Z,4.20
2018-12-18T03:44:45.046Z,4.20
2018-12-18T03:47:11.290Z,4.10
2018-12-18T03:49:44.561Z,4.10
2018-12-18T03:52:10.814Z,4.10
2018-12-18T03:54:37.095Z,4.20
2018-12-18T03:57:03.497Z,4.20
2018-12-18T03:59:29.741Z,4.20
2018-12-18T04:01:56.001Z,4.10
2018-12-18T04:04:22.290Z,4.20
2018-12-18T04:06:48.553Z,4.10
2018-12-18T04:09:14.801Z,4.10
2018-12-18T04:14:41.311Z,4.10
2018-12-18T04:17:07.706Z,4.10
2018-12-18T04:19:33.966Z,4.10
2018-12-18T04:22:00.230Z,4.00
2018-12-18T04:24:26.494Z,4.00
2018-12-18T04:26:52.774Z,3.90
2018-12-18T04:29:19.018Z,3.90
2018-12-18T04:31:45.289Z,3.80
2018-12-18T04:34:11.533Z,3.70
2018-12-18T04:36:38.225Z,3.60
2018-12-18T04:39:05.525Z,3.60
2018-12-18T04:41:31.818Z,3.60
2018-12-18T04:43:58.157Z,3.60
2018-12-18T04:46:24.421Z,3.70
2018-12-18T04:48:50.672Z,3.70
2018-12-18T04:51:16.943Z,3.80
2018-12-18T04:53:43.184Z,3.80
2018-12-18T04:56:09.461Z,3.80
2018-12-18T04:58:35.709Z,3.70
2018-12-18T05:01:01.977Z,3.60
2018-12-18T05:03:28.238Z,3.60
2018-12-18T05:05:54.477Z,3.50
2018-12-18T05:08:20.730Z,3.50
2018-12-18T05:10:46.985Z,3.60
2018-12-18T05:13:13.245Z,3.60
2018-12-18T05:15:39.493Z,3.60
2018-12-18T05:18:05.829Z,3.50
2018-12-18T05:20:32.129Z,3.40
2018-12-18T05:22:58.394Z,3.40
2018-12-18T05:25:24.642Z,3.30
2018-12-18T05:27:50.913Z,3.30
2018-12-18T05:30:17.273Z,3.20
2018-12-18T05:32:43.530Z,3.20
2018-12-18T05:35:09.885Z,3.00
2018-12-18T05:37:36.157Z,3.10
2018-12-18T05:40:04.142Z,3.20
2018-12-18T05:42:30.398Z,3.20
2018-12-18T05:44:56.645Z,3.20
2018-12-18T05:47:22.897Z,3.20
2018-12-18T05:49:49.253Z,3.10
2018-12-18T05:52:15.485Z,3.20
2018-12-18T05:54:41.830Z,3.20
2018-12-18T05:57:08.336Z,3.20
2018-12-18T05:59:34.601Z,3.20
2018-12-18T06:02:00.865Z,3.30
2018-12-18T06:04:27.175Z,3.20
2018-12-18T06:06:53.376Z,3.20
2018-12-18T06:09:19.649Z,3.20
2018-12-18T06:11:45.941Z,3.20
2018-12-18T06:14:12.205Z,3.20
2018-12-18T06:16:38.441Z,3.20
2018-12-18T06:19:04.730Z,3.20
2018-12-18T06:21:38.089Z,3.10
2018-12-18T06:24:04.382Z,3.20
2018-12-18T06:26:30.667Z,3.20
2018-12-18T06:28:56.942Z,3.30
2018-12-18T06:31:23.233Z,3.30
2018-12-18T06:33:49.477Z,3.30
2018-12-18T06:36:15.850Z,3.30
2018-12-18T06:38:42.098Z,3.30
2018-12-18T06:41:08.362Z,3.30
2018-12-18T06:43:34.622Z,3.30
2018-12-18T06:46:01.000Z,3.30
2018-12-18T06:48:27.245Z,3.30
2018-12-18T06:50:53.569Z,3.40
2018-12-18T06:56:12.586Z,3.40
2018-12-18T06:58:38.764Z,3.20
2018-12-18T07:01:05.029Z,3.20
2018-12-18T07:03:31.294Z,3.10
2018-12-18T07:05:57.542Z,3.10
2018-12-18T07:08:23.800Z,3.20
2018-12-18T07:10:50.040Z,3.20
2018-12-18T07:13:16.477Z,3.20
2018-12-18T07:15:42.729Z,3.20
2018-12-18T07:18:08.981Z,3.20
2018-12-18T07:20:35.233Z,3.10
2018-12-18T07:23:01.498Z,3.10
2018-12-18T07:25:27.761Z,3.10
2018-12-18T07:27:53.933Z,3.10
2018-12-18T07:30:20.204Z,3.00
2018-12-18T07:32:46.569Z,3.00
2018-12-18T07:35:12.817Z,3.00
2018-12-18T07:37:39.073Z,3.00
2018-12-18T07:40:05.446Z,3.00
2018-12-18T07:42:31.802Z,3.10
2018-12-18T07:44:58.056Z,3.20
2018-12-18T07:47:24.308Z,3.30
2018-12-18T07:49:50.573Z,3.40
2018-12-18T07:52:16.912Z,3.50
2018-12-18T07:54:43.166Z,3.50
2018-12-18T07:57:09.425Z,3.50
2018-12-18T07:59:35.679Z,3.60
2018-12-18T08:02:01.902Z,3.70
2018-12-18T08:04:28.285Z,3.70
2018-12-18T08:06:54.553Z,3.80
2018-12-18T08:09:20.809Z,3.90
2018-12-18T08:11:47.178Z,4.00
2018-12-18T08:14:13.584Z,4.00
2018-12-18T08:16:39.924Z,4.10
2018-12-18T08:19:06.185Z,4.10
2018-12-18T08:21:32.432Z,4.20
2018-12-18T08:23:58.685Z,4.30
2018-12-18T08:26:25.058Z,4.40
2018-12-18T08:28:51.305Z,4.30
2018-12-18T08:31:17.562Z,4.40
2018-12-18T08:33:43.827Z,4.40
2018-12-18T08:36:10.073Z,4.50
2018-12-18T08:38:36.326Z,4.50
2018-12-18T08:41:02.737Z,4.50
2018-12-18T08:43:28.905Z,4.60
2018-12-18T08:45:55.154Z,4.70
2018-12-18T08:48:21.426Z,4.80
2018-12-18T08:50:47.679Z,4.80
2018-12-18T08:53:13.941Z,4.80
2018-12-18T08:55:40.192Z,4.80
2018-12-18T08:58:06.449Z,4.80
2018-12-18T09:00:32.685Z,4.80
2018-12-18T09:02:58.948Z,4.90
2018-12-18T09:05:25.222Z,4.90
2018-12-18T09:07:51.478Z,5.00
2018-12-18T09:10:17.717Z,5.10
2018-12-18T09:12:43.983Z,5.10
2018-12-18T09:15:16.491Z,5.10
2018-12-18T09:17:48.903Z,5.20
2018-12-18T09:20:15.146Z,5.20
2018-12-18T09:22:41.809Z,5.30
2018-12-18T09:25:08.248Z,5.30
2018-12-18T09:27:34.516Z,5.40
2018-12-18T09:30:00.793Z,5.50
2018-12-18T09:32:27.046Z,5.60
2018-12-18T09:34:53.310Z,5.60
2018-12-18T09:37:19.571Z,5.70
2018-12-18T09:39:46.238Z,5.80
2018-12-18T09:42:18.698Z,5.90
2018-12-18T09:44:44.949Z,5.90
2018-12-18T09:47:11.197Z,5.90
2018-12-18T09:49:37.465Z,6.00
2018-12-18T09:52:03.846Z,6.10
2018-12-18T09:54:30.112Z,6.20
2018-12-18T09:56:58.397Z,6.20
2018-12-18T09:59:24.666Z,6.20
2018-12-18T10:01:50.916Z,6.50
2018-12-18T10:04:17.262Z,6.70
2018-12-18T10:06:45.032Z,6.70
2018-12-18T10:09:11.624Z,6.70
2018-12-18T10:11:37.896Z,6.80
2018-12-18T10:14:04.155Z,6.90
2018-12-18T10:16:30.422Z,6.90
2018-12-18T10:18:56.666Z,7.00
2018-12-18T10:21:22.936Z,7.00
2018-12-18T10:23:49.188Z,7.10
2018-12-18T10:26:15.438Z,7.10
2018-12-18T10:28:41.694Z,7.10
2018-12-18T10:31:07.953Z,7.30
2018-12-18T10:33:34.206Z,7.30
2018-12-18T10:36:03.075Z,7.50
2018-12-18T10:38:28.745Z,7.50
2018-12-18T10:40:54.990Z,7.60
2018-12-18T10:43:21.250Z,7.70
2018-12-18T10:45:47.493Z,7.70
2018-12-18T10:48:13.745Z,7.80
2018-12-18T10:50:40.114Z,7.80
2018-12-18T10:53:06.360Z,7.80
2018-12-18T10:55:32.605Z,7.90
2018-12-18T10:57:58.874Z,7.90
2018-12-18T11:00:31.259Z,8.00
2018-12-18T11:02:57.529Z,8.00
2018-12-18T11:05:23.786Z,8.20
2018-12-18T11:07:50.062Z,8.20
2018-12-18T11:10:16.434Z,8.20
2018-12-18T11:12:44.778Z,8.30
2018-12-18T11:15:11.148Z,8.30
2018-12-18T11:17:37.393Z,8.40
2018-12-18T11:20:04.085Z,8.40
2018-12-18T11:22:30.336Z,8.40
2018-12-18T11:24:56.638Z,8.30
2018-12-18T11:27:22.899Z,8.40
2018-12-18T11:29:49.161Z,8.40
2018-12-18T11:32:15.406Z,8.50
2018-12-18T11:34:41.701Z,8.60
2018-12-18T11:37:07.970Z,8.60
2018-12-18T11:39:34.357Z,8.60
2018-12-18T11:42:00.610Z,8.70
2018-12-18T11:44:26.861Z,8.70
2018-12-18T11:46:53.145Z,8.70
2018-12-18T11:49:19.381Z,8.70
2018-12-18T11:51:45.638Z,8.80
2018-12-18T11:54:11.872Z,8.90
2018-12-18T11:56:38.157Z,8.90
2018-12-18T11:59:04.400Z,8.90
2018-12-18T12:01:30.682Z,8.90
2018-12-18T12:03:56.957Z,8.90
2018-12-18T12:06:23.558Z,8.80
2018-12-18T12:08:49.865Z,8.90
2018-12-18T12:11:16.162Z,8.80
2018-12-18T12:13:42.410Z,8.70
2018-12-18T12:16:08.750Z,8.70
2018-12-18T12:18:41.940Z,8.70
2018-12-18T12:21:08.202Z,8.70
2018-12-18T12:23:34.474Z,8.70
2018-12-18T12:26:02.774Z,8.70
2018-12-18T12:28:29.165Z,8.70
2018-12-18T12:30:55.431Z,8.60
2018-12-18T12:33:21.696Z,8.70
2018-12-18T12:35:47.942Z,8.80
2018-12-18T12:38:14.209Z,8.90
2018-12-18T12:40:40.471Z,8.90
2018-12-18T12:43:06.757Z,9.00
2018-12-18T12:45:32.993Z,8.90
2018-12-18T12:47:59.269Z,8.90
2018-12-18T12:50:25.533Z,9.00
2018-12-18T12:52:51.817Z,9.00
2018-12-18T12:55:18.091Z,9.00
2018-12-18T12:57:44.450Z,9.00
2018-12-18T13:00:11.061Z,9.00
2018-12-18T13:02:38.417Z,8.90
2018-12-18T13:05:04.673Z,8.80
2018-12-18T13:07:30.934Z,8.70
2018-12-18T13:09:57.193Z,8.60
2018-12-18T13:12:23.472Z,8.70
2018-12-18T13:14:49.722Z,8.70
2018-12-18T13:17:15.875Z,8.70
2018-12-18T13:19:42.130Z,8.60
2018-12-18T13:22:09.181Z,8.70
2018-12-18T13:24:35.521Z,8.50
2018-12-18T13:27:01.765Z,8.60
2018-12-18T13:29:28.151Z,8.50
2018-12-18T13:31:54.592Z,8.50
2018-12-18T13:34:20.814Z,8.40
2018-12-18T13:36:47.060Z,8.50
2018-12-18T13:39:13.315Z,8.50
2018-12-18T13:41:39.682Z,8.50
2018-12-18T13:44:05.941Z,8.40
2018-12-18T13:46:32.201Z,8.40
2018-12-18T13:48:58.450Z,8.40
2018-12-18T13:51:24.706Z,8.50
2018-12-18T13:53:50.926Z,8.60
2018-12-18T13:56:17.174Z,8.50
2018-12-18T13:58:43.446Z,8.50
2018-12-18T14:01:09.688Z,8.40
2018-12-18T14:03:35.951Z,8.40
2018-12-18T14:06:02.350Z,8.30
2018-12-18T14:08:28.592Z,8.30
2018-12-18T14:10:54.954Z,8.20
2018-12-18T14:13:21.225Z,8.20
2018-12-18T14:15:47.485Z,8.20
2018-12-18T14:18:13.757Z,8.10
2018-12-18T14:20:40.021Z,8.00
2018-12-18T14:23:06.285Z,8.00
2018-12-18T14:25:32.538Z,8.00
2018-12-18T14:27:58.781Z,7.90
2018-12-18T14:30:25.038Z,7.70
2018-12-18T14:32:51.286Z,7.70
2018-12-18T14:35:17.545Z,7.70
2018-12-18T14:37:43.793Z,7.60
2018-12-18T14:40:10.122Z,7.50
2018-12-18T14:42:36.374Z,7.50
2018-12-18T14:45:03.870Z,7.40
2018-12-18T14:47:30.300Z,7.30
2018-12-18T14:49:58.148Z,7.30
2018-12-18T14:52:24.537Z,7.30
2018-12-18T14:54:50.779Z,7.30
2018-12-18T14:57:17.041Z,7.10
2018-12-18T14:59:43.618Z,7.00
2018-12-18T15:02:09.877Z,6.90
2018-12-18T15:04:36.126Z,6.80
2018-12-18T15:07:02.928Z,6.80
2018-12-18T15:09:29.569Z,6.70
2018-12-18T15:11:55.845Z,6.60
2018-12-18T15:14:22.085Z,6.50
2018-12-18T15:16:48.349Z,6.50
2018-12-18T15:19:14.544Z,6.50
2018-12-18T15:21:41.973Z,6.40
2018-12-18T15:24:08.344Z,6.30
2018-12-18T15:26:34.614Z,6.30
2018-12-18T15:29:00.905Z,6.20
2018-12-18T15:31:27.186Z,6.10
2018-12-18T15:33:53.485Z,6.10
2018-12-18T15:36:19.731Z,6.10
2018-12-18T15:38:45.997Z,6.00
2018-12-18T15:41:12.248Z,5.90
2018-12-18T15:43:38.628Z,5.80
2018-12-18T15:46:04.882Z,5.70
2018-12-18T15:48:31.141Z,5.70
2018-12-18T15:50:57.394Z,5.70
2018-12-18T15:53:23.649Z,5.70
2018-12-18T15:55:49.892Z,5.70
2018-12-18T15:58:16.150Z,5.80
2018-12-18T16:00:42.410Z,5.80
2018-12-18T16:03:08.669Z,5.70
2018-12-18T16:05:34.914Z,5.70
2018-12-18T16:08:01.152Z,5.80
2018-12-18T16:10:27.473Z,5.80
2018-12-18T16:12:53.732Z,5.70
2018-12-18T16:15:20.214Z,5.70
2018-12-18T16:17:46.472Z,5.60
2018-12-18T16:20:12.729Z,5.70
2018-12-18T16:22:39.006Z,5.70
2018-12-18T16:25:05.438Z,5.70
2018-12-18T16:27:31.666Z,5.70
2018-12-18T16:29:57.921Z,5.70
2018-12-18T16:32:24.166Z,5.60
2018-12-18T16:34:50.417Z,5.60
2018-12-18T16:37:22.749Z,5.60
2018-12-18T16:39:44.895Z,5.60
2018-12-18T16:42:11.141Z,5.50
2018-12-18T16:44:37.393Z,5.50
2018-12-18T16:47:03.709Z,5.50
2018-12-18T16:49:30.149Z,5.50
2018-12-18T16:51:56.512Z,5.50
2018-12-18T16:54:23.202Z,5.40
2018-12-18T16:56:49.638Z,5.50
2018-12-18T16:59:15.903Z,5.50
2018-12-18T17:01:42.162Z,5.50
2018-12-18T17:04:08.439Z,5.50
2018-12-18T17:06:34.686Z,5.50
2018-12-18T17:09:00.952Z,5.50
2018-12-18T17:11:27.317Z,5.40
2018-12-18T17:13:53.726Z,5.50
2018-12-18T17:16:19.969Z,5.50
2018-12-18T17:18:46.233Z,5.50
2018-12-18T17:21:12.494Z,5.40
2018-12-18T17:23:38.844Z,5.50
2018-12-18T17:26:05.153Z,5.50
2018-12-18T17:28:33.347Z,5.50
2018-12-18T17:30:59.597Z,5.50
2018-12-18T17:33:25.857Z,5.50
2018-12-18T17:35:52.546Z,5.50
2018-12-18T17:38:18.816Z,5.50
2018-12-18T17:40:45.788Z,5.40
2018-12-18T17:43:13.093Z,5.40
2018-12-18T17:45:39.349Z,5.40
2018-12-18T17:48:05.762Z,5.30
2018-12-18T17:50:31.913Z,5.30
2018-12-18T17:52:58.282Z,5.40
2018-12-18T17:55:24.574Z,5.40
2018-12-18T17:57:50.830Z,5.40
2018-12-18T18:00:17.090Z,5.30
2018-12-18T18:02:43.329Z,5.30
2018-12-18T18:05:09.597Z,5.30
2018-12-18T18:07:35.918Z,5.30
2018-12-18T18:10:03.114Z,5.30
2018-12-18T18:12:30.070Z,5.20
2018-12-18T18:14:56.546Z,5.20
2018-12-18T18:17:22.914Z,5.30
2018-12-18T18:19:49.177Z,5.30
2018-12-18T18:22:15.417Z,5.30
2018-12-18T18:24:41.673Z,5.30
2018-12-18T18:27:07.925Z,5.30
2018-12-18T18:29:34.198Z,5.20
2018-12-18T18:32:00.445Z,5.20
2018-12-18T18:34:26.705Z,5.20
2018-12-18T18:36:53.036Z,5.20
2018-12-18T18:39:19.302Z,5.20
2018-12-18T18:41:45.537Z,5.20
2018-12-18T18:44:11.789Z,5.20
2018-12-18T18:46:38.052Z,5.30
2018-12-18T18:49:04.319Z,5.20
2018-12-18T18:51:30.598Z,5.20
2018-12-18T18:53:56.918Z,5.20
2018-12-18T18:56:23.359Z,5.20
2018-12-18T18:58:49.900Z,5.20
2018-12-18T19:01:16.173Z,5.20
2018-12-18T19:03:46.337Z,5.20
2018-12-18T19:06:12.578Z,5.20
2018-12-18T19:08:41.759Z,5.20
2018-12-18T19:11:08.026Z,5.20
2018-12-18T19:13:34.288Z,5.20
2018-12-18T19:16:00.533Z,5.20
2018-12-18T19:18:26.813Z,5.20
2018-12-18T19:20:53.102Z,5.20
2018-12-18T19:23:19.283Z,5.20
2018-12-18T19:25:45.569Z,5.20
2018-12-18T19:28:11.842Z,5.20
2018-12-18T19:30:38.135Z,5.20
2018-12-18T19:33:04.406Z,5.20
2018-12-18T19:35:30.674Z,5.20
2018-12-18T19:38:03.013Z,5.20
2018-12-18T19:40:25.207Z,5.10
2018-12-18T19:42:51.450Z,5.20
2018-12-18T19:45:17.705Z,5.20
2018-12-18T19:47:43.973Z,5.20
2018-12-18T19:50:10.257Z,5.20
2018-12-18T19:52:36.496Z,5.20
2018-12-18T19:55:03.086Z,5.20
2018-12-18T19:57:29.359Z,5.20
2018-12-18T19:59:55.598Z,5.20
2018-12-18T20:02:21.926Z,5.20
2018-12-18T20:04:55.173Z,5.20
2018-12-18T20:07:21.461Z,5.30
2018-12-18T20:09:47.707Z,5.30
2018-12-18T20:12:13.974Z,5.30
2018-12-18T20:14:40.464Z,5.40
2018-12-18T20:17:07.125Z,5.40
2018-12-18T20:19:33.494Z,5.40
2018-12-18T20:21:59.856Z,5.30
2018-12-18T20:24:26.172Z,5.30
2018-12-18T20:26:52.434Z,5.20
2018-12-18T20:29:18.670Z,5.20
2018-12-18T20:31:44.920Z,5.20
2018-12-18T20:34:11.165Z,5.20
2018-12-18T20:36:37.441Z,5.20
2018-12-18T20:39:06.034Z,5.30
2018-12-18T20:41:32.298Z,5.30
2018-12-18T20:43:58.535Z,5.30
2018-12-18T20:46:24.829Z,5.30
2018-12-18T20:48:51.086Z,5.40
2018-12-18T20:51:17.325Z,5.30
2018-12-18T20:53:43.611Z,5.40
2018-12-18T20:56:09.849Z,5.30
2018-12-18T20:58:36.108Z,5.30
2018-12-18T21:01:02.377Z,5.40
2018-12-18T21:03:28.546Z,5.40
2018-12-18T21:05:54.783Z,5.40
2018-12-18T21:08:23.540Z,5.50
2018-12-18T21:10:49.305Z,5.40
2018-12-18T21:13:21.585Z,5.40
2018-12-18T21:15:47.822Z,5.40
2018-12-18T21:18:13.981Z,5.40
2018-12-18T21:20:47.037Z,5.50
2018-12-18T21:23:13.286Z,5.50
2018-12-18T21:25:39.530Z,5.50
2018-12-18T21:28:05.769Z,5.50
2018-12-18T21:30:32.017Z,5.50
2018-12-18T21:32:58.280Z,5.50
2018-12-18T21:35:24.500Z,5.60
2018-12-18T21:37:50.729Z,5.60
2018-12-18T21:40:16.990Z,5.70
2018-12-18T21:42:43.339Z,5.80
2018-12-18T21:45:09.602Z,5.90
2018-12-18T21:47:35.845Z,5.90
2018-12-18T21:50:03.229Z,6.00
2018-12-18T21:52:29.458Z,6.00
2018-12-18T21:54:55.724Z,6.00
2018-12-18T21:57:21.965Z,6.00
2018-12-18T21:59:48.294Z,6.10
2018-12-18T22:02:14.529Z,6.00
2018-12-18T22:04:40.770Z,6.10
2018-12-18T22:07:07.018Z,6.00
2018-12-18T22:09:33.270Z,6.00
2018-12-18T22:11:59.498Z,6.00
2018-12-18T22:14:25.750Z,5.90
2018-12-18T22:16:51.978Z,6.00
2018-12-18T22:19:18.242Z,6.00
2018-12-18T22:21:44.490Z,6.00
2018-12-18T22:24:10.734Z,5.90
2018-12-18T22:26:36.996Z,5.90
2018-12-18T22:29:03.266Z,5.90
2018-12-18T22:31:29.524Z,5.90
2018-12-18T22:33:55.765Z,5.90
2018-12-18T22:36:22.025Z,5.90
2018-12-18T22:38:48.258Z,5.90
2018-12-18T22:41:14.564Z,5.90
2018-12-18T22:43:40.867Z,5.90
2018-12-18T22:46:07.138Z,5.90
2018-12-18T22:48:33.397Z,5.90
2018-12-18T22:50:59.774Z,5.90
2018-12-18T22:53:26.022Z,5.80
2018-12-18T22:55:52.408Z,5.90
2018-12-18T22:58:18.649Z,5.90
2018-12-18T23:01:05.025Z,5.90
2018-12-18T23:03:31.405Z,5.90
2018-12-18T23:06:04.537Z,5.80
2018-12-18T23:08:30.939Z,5.80
2018-12-18T23:10:57.550Z,5.90
2018-12-18T23:13:23.800Z,5.80
2018-12-18T23:15:50.337Z,5.90
2018-12-18T23:18:16.673Z,5.80
2018-12-18T23:20:44.829Z,5.90
2018-12-18T23:23:11.093Z,5.80
2018-12-18T23:25:37.325Z,5.80
2018-12-18T23:28:03.592Z,5.90
2018-12-18T23:30:29.842Z,5.90
2018-12-18T23:32:56.214Z,5.80
2018-12-18T23:35:22.581Z,5.80
2018-12-18T23:37:48.837Z,5.80
2018-12-18T23:40:15.086Z,5.80
2018-12-18T23:42:41.355Z,5.80
2018-12-18T23:45:07.622Z,5.80
2018-12-18T23:47:33.888Z,5.80
2018-12-18T23:50:00.125Z,5.90
2018-12-18T23:52:26.608Z,5.90
2018-12-18T23:54:52.909Z,6.00
2018-12-18T23:57:19.145Z,6.10
2018-12-18T23:59:45.406Z,6.20
